sensor_id;sensor_type;location;lat;lon;timestamp;temperature;humidity
20735;DHT22;10528;52.124;5.196;2023-04-08T00:00:29;9.20;99.90
20735;DHT22;10528;52.124;5.196;2023-04-08T00:02:55;9.20;99.90
20735;DHT22;10528;52.124;5.196;2023-04-08T00:05:22;9.20;99.90
20735;DHT22;10528;52.124;5.196;2023-04-08T00:07:49;9.20;99.90
20735;DHT22;10528;52.124;5.196;2023-04-08T00:10:16;9.10;99.90
20735;DHT22;10528;52.124;5.196;2023-04-08T00:12:43;9.00;99.90
20735;DHT22;10528;52.124;5.196;2023-04-08T00:15:10;8.90;99.90
20735;DHT22;10528;52.124;5.196;2023-04-08T00:17:37;8.90;99.90
20735;DHT22;10528;52.124;5.196;2023-04-08T00:20:04;8.90;99.90
20735;DHT22;10528;52.124;5.196;2023-04-08T00:22:32;8.90;99.90
20735;DHT22;10528;52.124;5.196;2023-04-08T00:24:59;8.90;99.90
20735;DHT22;10528;52.124;5.196;2023-04-08T00:27:26;8.90;99.90
20735;DHT22;10528;52.124;5.196;2023-04-08T00:29:53;9.00;99.90
20735;DHT22;10528;52.124;5.196;2023-04-08T00:32:19;9.00;99.90
20735;DHT22;10528;52.124;5.196;2023-04-08T00:34:48;9.00;99.90
20735;DHT22;10528;52.124;5.196;2023-04-08T00:37:14;9.00;99.90
20735;DHT22;10528;52.124;5.196;2023-04-08T00:39:41;9.00;99.90
20735;DHT22;10528;52.124;5.196;2023-04-08T00:42:08;8.90;99.90
20735;DHT22;10528;52.124;5.196;2023-04-08T00:44:35;8.90;99.90
20735;DHT22;10528;52.124;5.196;2023-04-08T00:47:03;8.90;99.90
20735;DHT22;10528;52.124;5.196;2023-04-08T00:49:30;8.90;99.90
20735;DHT22;10528;52.124;5.196;2023-04-08T00:51:58;8.90;99.90
20735;DHT22;10528;52.124;5.196;2023-04-08T00:54:25;8.90;99.90
20735;DHT22;10528;52.124;5.196;2023-04-08T00:56:52;8.90;99.90
20735;DHT22;10528;52.124;5.196;2023-04-08T00:59:19;8.90;99.90
20735;DHT22;10528;52.124;5.196;2023-04-08T01:02:07;8.80;99.90
20735;DHT22;10528;52.124;5.196;2023-04-08T01:05:38;8.80;99.90
20735;DHT22;10528;52.124;5.196;2023-04-08T01:07:51;8.70;99.90
20735;DHT22;10528;52.124;5.196;2023-04-08T01:10:25;8.70;99.90
20735;DHT22;10528;52.124;5.196;2023-04-08T01:13:01;8.70;99.90
20735;DHT22;10528;52.124;5.196;2023-04-08T01:15:34;8.70;99.90
20735;DHT22;10528;52.124;5.196;2023-04-08T01:18:09;8.70;99.90
20735;DHT22;10528;52.124;5.196;2023-04-08T01:20:44;8.70;99.90
20735;DHT22;10528;52.124;5.196;2023-04-08T01:26:11;8.50;99.90
20735;DHT22;10528;52.124;5.196;2023-04-08T01:28:48;8.50;99.90
20735;DHT22;10528;52.124;5.196;2023-04-08T01:31:18;8.40;99.90
20735;DHT22;10528;52.124;5.196;2023-04-08T01:33:47;8.40;99.90
20735;DHT22;10528;52.124;5.196;2023-04-08T01:36:16;8.40;99.90
20735;DHT22;10528;52.124;5.196;2023-04-08T01:38:47;8.30;99.90
20735;DHT22;10528;52.124;5.196;2023-04-08T01:41:16;8.30;99.90
20735;DHT22;10528;52.124;5.196;2023-04-08T01:43:44;8.30;99.90
20735;DHT22;10528;52.124;5.196;2023-04-08T01:46:12;8.20;99.90
20735;DHT22;10528;52.124;5.196;2023-04-08T01:48:41;8.30;99.90
20735;DHT22;10528;52.124;5.196;2023-04-08T01:51:10;8.20;99.90
20735;DHT22;10528;52.124;5.196;2023-04-08T01:53:38;8.20;99.90
20735;DHT22;10528;52.124;5.196;2023-04-08T01:56:08;8.20;99.90
20735;DHT22;10528;52.124;5.196;2023-04-08T01:58:47;8.10;99.90
20735;DHT22;10528;52.124;5.196;2023-04-08T02:01:20;8.10;99.90
20735;DHT22;10528;52.124;5.196;2023-04-08T02:03:52;8.00;99.90
20735;DHT22;10528;52.124;5.196;2023-04-08T02:06:24;8.10;99.90
20735;DHT22;10528;52.124;5.196;2023-04-08T02:08:53;8.10;99.90
20735;DHT22;10528;52.124;5.196;2023-04-08T02:11:20;8.10;99.90
20735;DHT22;10528;52.124;5.196;2023-04-08T02:13:47;8.10;99.90
20735;DHT22;10528;52.124;5.196;2023-04-08T02:16:22;8.10;99.90
20735;DHT22;10528;52.124;5.196;2023-04-08T02:19:14;8.10;99.90
20735;DHT22;10528;52.124;5.196;2023-04-08T02:22:16;8.10;99.90
20735;DHT22;10528;52.124;5.196;2023-04-08T02:24:49;8.10;99.90
20735;DHT22;10528;52.124;5.196;2023-04-08T02:27:18;8.20;99.90
20735;DHT22;10528;52.124;5.196;2023-04-08T02:29:46;8.10;99.90
20735;DHT22;10528;52.124;5.196;2023-04-08T02:32:15;8.10;99.90
20735;DHT22;10528;52.124;5.196;2023-04-08T02:34:45;8.10;99.90
20735;DHT22;10528;52.124;5.196;2023-04-08T02:37:13;8.10;99.90
20735;DHT22;10528;52.124;5.196;2023-04-08T02:39:40;8.10;99.90
20735;DHT22;10528;52.124;5.196;2023-04-08T02:42:09;8.10;99.90
20735;DHT22;10528;52.124;5.196;2023-04-08T02:44:37;8.10;99.90
20735;DHT22;10528;52.124;5.196;2023-04-08T02:47:04;8.10;99.90
20735;DHT22;10528;52.124;5.196;2023-04-08T02:49:33;8.10;99.90
20735;DHT22;10528;52.124;5.196;2023-04-08T02:52:00;8.10;99.90
20735;DHT22;10528;52.124;5.196;2023-04-08T02:54:27;8.10;99.90
20735;DHT22;10528;52.124;5.196;2023-04-08T02:56:54;8.10;99.90
20735;DHT22;10528;52.124;5.196;2023-04-08T02:59:21;8.10;99.90
20735;DHT22;10528;52.124;5.196;2023-04-08T03:01:48;8.10;99.90
20735;DHT22;10528;52.124;5.196;2023-04-08T03:04:15;8.10;99.90
20735;DHT22;10528;52.124;5.196;2023-04-08T03:06:42;8.10;99.90
20735;DHT22;10528;52.124;5.196;2023-04-08T03:09:09;8.00;99.90
20735;DHT22;10528;52.124;5.196;2023-04-08T03:11:35;8.10;99.90
20735;DHT22;10528;52.124;5.196;2023-04-08T03:14:02;8.00;99.90
20735;DHT22;10528;52.124;5.196;2023-04-08T03:16:29;8.10;99.90
20735;DHT22;10528;52.124;5.196;2023-04-08T03:18:56;8.00;99.90
20735;DHT22;10528;52.124;5.196;2023-04-08T03:21:23;8.00;99.90
20735;DHT22;10528;52.124;5.196;2023-04-08T03:23:50;8.10;99.90
20735;DHT22;10528;52.124;5.196;2023-04-08T03:26:16;8.10;99.90
20735;DHT22;10528;52.124;5.196;2023-04-08T03:28:43;8.10;99.90
20735;DHT22;10528;52.124;5.196;2023-04-08T03:31:10;8.10;99.90
20735;DHT22;10528;52.124;5.196;2023-04-08T03:33:37;8.10;99.90
20735;DHT22;10528;52.124;5.196;2023-04-08T03:36:04;8.10;99.90
20735;DHT22;10528;52.124;5.196;2023-04-08T03:38:32;8.10;99.90
20735;DHT22;10528;52.124;5.196;2023-04-08T03:40:59;7.90;99.90
20735;DHT22;10528;52.124;5.196;2023-04-08T03:43:26;7.80;99.90
20735;DHT22;10528;52.124;5.196;2023-04-08T03:45:54;7.80;99.90
20735;DHT22;10528;52.124;5.196;2023-04-08T03:48:22;7.80;99.90
20735;DHT22;10528;52.124;5.196;2023-04-08T03:50:48;7.90;99.90
20735;DHT22;10528;52.124;5.196;2023-04-08T03:53:15;7.90;99.90
20735;DHT22;10528;52.124;5.196;2023-04-08T03:55:42;7.90;99.90
20735;DHT22;10528;52.124;5.196;2023-04-08T03:58:09;7.80;99.90
20735;DHT22;10528;52.124;5.196;2023-04-08T04:00:36;7.90;99.90
20735;DHT22;10528;52.124;5.196;2023-04-08T04:03:03;8.00;99.90
20735;DHT22;10528;52.124;5.196;2023-04-08T04:05:29;7.90;99.90
20735;DHT22;10528;52.124;5.196;2023-04-08T04:07:56;7.90;99.90
20735;DHT22;10528;52.124;5.196;2023-04-08T04:10:24;8.00;99.90
20735;DHT22;10528;52.124;5.196;2023-04-08T04:12:51;8.00;99.90
20735;DHT22;10528;52.124;5.196;2023-04-08T04:15:18;8.00;99.90
20735;DHT22;10528;52.124;5.196;2023-04-08T04:17:48;8.00;99.90
20735;DHT22;10528;52.124;5.196;2023-04-08T04:20:17;8.10;99.90
20735;DHT22;10528;52.124;5.196;2023-04-08T04:22:44;8.00;99.90
20735;DHT22;10528;52.124;5.196;2023-04-08T04:25:11;8.00;99.90
20735;DHT22;10528;52.124;5.196;2023-04-08T04:27:37;8.00;99.90
20735;DHT22;10528;52.124;5.196;2023-04-08T04:30:05;8.00;99.90
20735;DHT22;10528;52.124;5.196;2023-04-08T04:32:33;8.00;99.90
20735;DHT22;10528;52.124;5.196;2023-04-08T04:34:59;8.00;99.90
20735;DHT22;10528;52.124;5.196;2023-04-08T04:37:26;8.10;99.90
20735;DHT22;10528;52.124;5.196;2023-04-08T04:39:53;8.00;99.90
20735;DHT22;10528;52.124;5.196;2023-04-08T04:42:20;8.10;99.90
20735;DHT22;10528;52.124;5.196;2023-04-08T04:44:47;8.10;99.90
20735;DHT22;10528;52.124;5.196;2023-04-08T04:47:14;8.10;99.90
20735;DHT22;10528;52.124;5.196;2023-04-08T04:49:42;7.80;99.90
20735;DHT22;10528;52.124;5.196;2023-04-08T04:52:08;7.80;99.90
20735;DHT22;10528;52.124;5.196;2023-04-08T04:54:35;7.90;99.90
20735;DHT22;10528;52.124;5.196;2023-04-08T04:57:02;8.00;99.90
20735;DHT22;10528;52.124;5.196;2023-04-08T04:59:29;8.00;99.90
20735;DHT22;10528;52.124;5.196;2023-04-08T05:01:56;7.90;99.90
20735;DHT22;10528;52.124;5.196;2023-04-08T05:04:24;7.80;99.90
20735;DHT22;10528;52.124;5.196;2023-04-08T05:06:51;7.80;99.90
20735;DHT22;10528;52.124;5.196;2023-04-08T05:09:18;7.80;99.90
20735;DHT22;10528;52.124;5.196;2023-04-08T05:11:45;7.80;99.90
20735;DHT22;10528;52.124;5.196;2023-04-08T05:14:11;7.70;99.90
20735;DHT22;10528;52.124;5.196;2023-04-08T05:16:38;7.70;99.90
20735;DHT22;10528;52.124;5.196;2023-04-08T05:19:06;7.70;99.90
20735;DHT22;10528;52.124;5.196;2023-04-08T05:21:33;7.70;99.90
20735;DHT22;10528;52.124;5.196;2023-04-08T05:24:00;7.70;99.90
20735;DHT22;10528;52.124;5.196;2023-04-08T05:26:26;7.70;99.90
20735;DHT22;10528;52.124;5.196;2023-04-08T05:28:53;7.60;99.90
20735;DHT22;10528;52.124;5.196;2023-04-08T05:31:20;7.60;99.90
20735;DHT22;10528;52.124;5.196;2023-04-08T05:33:47;7.40;99.90
20735;DHT22;10528;52.124;5.196;2023-04-08T05:36:14;7.20;99.90
20735;DHT22;10528;52.124;5.196;2023-04-08T05:38:41;7.00;99.90
20735;DHT22;10528;52.124;5.196;2023-04-08T05:41:09;6.80;99.90
20735;DHT22;10528;52.124;5.196;2023-04-08T05:43:36;6.90;99.90
20735;DHT22;10528;52.124;5.196;2023-04-08T05:46:07;6.80;99.90
20735;DHT22;10528;52.124;5.196;2023-04-08T05:48:36;6.80;99.90
20735;DHT22;10528;52.124;5.196;2023-04-08T05:51:03;6.80;99.90
20735;DHT22;10528;52.124;5.196;2023-04-08T05:53:30;6.90;99.90
20735;DHT22;10528;52.124;5.196;2023-04-08T05:55:57;6.80;99.90
20735;DHT22;10528;52.124;5.196;2023-04-08T05:58:23;6.80;99.90
20735;DHT22;10528;52.124;5.196;2023-04-08T06:00:50;6.70;99.90
20735;DHT22;10528;52.124;5.196;2023-04-08T06:03:17;6.70;99.90
20735;DHT22;10528;52.124;5.196;2023-04-08T06:05:46;6.70;99.90
20735;DHT22;10528;52.124;5.196;2023-04-08T06:08:13;6.60;99.90
20735;DHT22;10528;52.124;5.196;2023-04-08T06:10:40;6.80;99.90
20735;DHT22;10528;52.124;5.196;2023-04-08T06:13:13;6.70;99.90
20735;DHT22;10528;52.124;5.196;2023-04-08T06:15:41;6.70;99.90
20735;DHT22;10528;52.124;5.196;2023-04-08T06:18:08;6.70;99.90
20735;DHT22;10528;52.124;5.196;2023-04-08T06:20:35;6.90;99.90
20735;DHT22;10528;52.124;5.196;2023-04-08T06:23:02;6.90;99.90
20735;DHT22;10528;52.124;5.196;2023-04-08T06:25:29;6.90;99.90
20735;DHT22;10528;52.124;5.196;2023-04-08T06:27:55;6.70;99.90
20735;DHT22;10528;52.124;5.196;2023-04-08T06:30:22;6.70;99.90
20735;DHT22;10528;52.124;5.196;2023-04-08T06:32:49;6.80;99.90
20735;DHT22;10528;52.124;5.196;2023-04-08T06:35:16;6.90;99.90
20735;DHT22;10528;52.124;5.196;2023-04-08T06:37:43;6.80;99.90
20735;DHT22;10528;52.124;5.196;2023-04-08T06:40:10;7.00;99.90
20735;DHT22;10528;52.124;5.196;2023-04-08T06:42:37;6.80;99.90
20735;DHT22;10528;52.124;5.196;2023-04-08T06:45:15;6.80;99.90
20735;DHT22;10528;52.124;5.196;2023-04-08T06:47:42;6.90;99.90
20735;DHT22;10528;52.124;5.196;2023-04-08T06:50:09;6.70;99.90
20735;DHT22;10528;52.124;5.196;2023-04-08T06:52:36;6.80;99.90
20735;DHT22;10528;52.124;5.196;2023-04-08T06:55:03;6.90;99.90
20735;DHT22;10528;52.124;5.196;2023-04-08T06:57:31;7.00;99.90
20735;DHT22;10528;52.124;5.196;2023-04-08T06:59:57;7.00;99.90
20735;DHT22;10528;52.124;5.196;2023-04-08T07:02:25;7.00;99.90
20735;DHT22;10528;52.124;5.196;2023-04-08T07:04:52;7.30;99.90
20735;DHT22;10528;52.124;5.196;2023-04-08T07:07:19;7.70;99.90
20735;DHT22;10528;52.124;5.196;2023-04-08T07:09:46;7.90;99.90
20735;DHT22;10528;52.124;5.196;2023-04-08T07:12:13;7.80;99.90
20735;DHT22;10528;52.124;5.196;2023-04-08T07:14:40;7.80;99.90
20735;DHT22;10528;52.124;5.196;2023-04-08T07:17:06;7.90;99.90
20735;DHT22;10528;52.124;5.196;2023-04-08T07:19:34;7.70;99.90
20735;DHT22;10528;52.124;5.196;2023-04-08T07:22:01;7.90;99.90
20735;DHT22;10528;52.124;5.196;2023-04-08T07:24:28;8.00;99.90
20735;DHT22;10528;52.124;5.196;2023-04-08T07:26:55;7.90;99.90
20735;DHT22;10528;52.124;5.196;2023-04-08T07:29:22;8.00;99.90
20735;DHT22;10528;52.124;5.196;2023-04-08T07:31:49;8.00;99.90
20735;DHT22;10528;52.124;5.196;2023-04-08T07:34:17;8.10;99.90
20735;DHT22;10528;52.124;5.196;2023-04-08T07:36:44;8.10;99.90
20735;DHT22;10528;52.124;5.196;2023-04-08T07:39:11;8.20;99.90
20735;DHT22;10528;52.124;5.196;2023-04-08T07:41:37;8.30;99.90
20735;DHT22;10528;52.124;5.196;2023-04-08T07:44:04;8.20;99.90
20735;DHT22;10528;52.124;5.196;2023-04-08T07:46:35;8.40;99.90
20735;DHT22;10528;52.124;5.196;2023-04-08T07:49:04;8.50;99.90
20735;DHT22;10528;52.124;5.196;2023-04-08T07:51:31;8.60;99.90
20735;DHT22;10528;52.124;5.196;2023-04-08T07:53:58;8.60;99.90
20735;DHT22;10528;52.124;5.196;2023-04-08T07:56:25;8.70;99.90
20735;DHT22;10528;52.124;5.196;2023-04-08T07:58:52;8.70;99.90
20735;DHT22;10528;52.124;5.196;2023-04-08T08:01:21;8.80;99.90
20735;DHT22;10528;52.124;5.196;2023-04-08T08:03:51;8.90;99.90
20735;DHT22;10528;52.124;5.196;2023-04-08T08:06:19;8.90;99.90
20735;DHT22;10528;52.124;5.196;2023-04-08T08:08:47;9.10;99.90
20735;DHT22;10528;52.124;5.196;2023-04-08T08:11:14;9.10;99.90
20735;DHT22;10528;52.124;5.196;2023-04-08T08:13:41;9.00;99.90
20735;DHT22;10528;52.124;5.196;2023-04-08T08:16:07;9.10;99.90
20735;DHT22;10528;52.124;5.196;2023-04-08T08:18:37;9.20;99.90
20735;DHT22;10528;52.124;5.196;2023-04-08T08:21:06;9.40;99.90
20735;DHT22;10528;52.124;5.196;2023-04-08T08:23:34;9.30;99.90
20735;DHT22;10528;52.124;5.196;2023-04-08T08:26:02;9.30;99.90
20735;DHT22;10528;52.124;5.196;2023-04-08T08:28:33;9.30;99.90
20735;DHT22;10528;52.124;5.196;2023-04-08T08:31:01;9.40;99.90
20735;DHT22;10528;52.124;5.196;2023-04-08T08:33:29;9.60;99.90
20735;DHT22;10528;52.124;5.196;2023-04-08T08:35:56;9.70;99.90
20735;DHT22;10528;52.124;5.196;2023-04-08T08:38:24;9.70;99.90
20735;DHT22;10528;52.124;5.196;2023-04-08T08:40:55;9.80;99.90
20735;DHT22;10528;52.124;5.196;2023-04-08T08:43:26;10.00;99.90
20735;DHT22;10528;52.124;5.196;2023-04-08T08:45:54;10.10;99.90
20735;DHT22;10528;52.124;5.196;2023-04-08T08:48:21;10.10;99.90
20735;DHT22;10528;52.124;5.196;2023-04-08T08:50:48;10.20;99.90
20735;DHT22;10528;52.124;5.196;2023-04-08T08:53:15;10.20;99.90
20735;DHT22;10528;52.124;5.196;2023-04-08T08:55:43;10.30;99.90
20735;DHT22;10528;52.124;5.196;2023-04-08T08:58:30;10.30;99.90
20735;DHT22;10528;52.124;5.196;2023-04-08T09:00:57;10.40;99.90
20735;DHT22;10528;52.124;5.196;2023-04-08T09:03:26;10.40;99.90
20735;DHT22;10528;52.124;5.196;2023-04-08T09:05:59;10.50;99.90
20735;DHT22;10528;52.124;5.196;2023-04-08T09:08:35;10.50;99.90
20735;DHT22;10528;52.124;5.196;2023-04-08T09:11:19;10.70;99.90
20735;DHT22;10528;52.124;5.196;2023-04-08T09:13:49;10.70;99.90
20735;DHT22;10528;52.124;5.196;2023-04-08T09:16:18;10.70;99.90
20735;DHT22;10528;52.124;5.196;2023-04-08T09:18:46;11.00;99.90
20735;DHT22;10528;52.124;5.196;2023-04-08T09:21:21;10.90;99.90
20735;DHT22;10528;52.124;5.196;2023-04-08T09:23:51;11.00;99.90
20735;DHT22;10528;52.124;5.196;2023-04-08T09:26:21;11.30;99.90
20735;DHT22;10528;52.124;5.196;2023-04-08T09:29:04;11.30;99.90
20735;DHT22;10528;52.124;5.196;2023-04-08T09:31:58;11.30;99.90
20735;DHT22;10528;52.124;5.196;2023-04-08T09:34:28;11.50;99.90
20735;DHT22;10528;52.124;5.196;2023-04-08T09:36:56;11.70;99.90
20735;DHT22;10528;52.124;5.196;2023-04-08T09:39:23;12.00;99.90
20735;DHT22;10528;52.124;5.196;2023-04-08T09:41:50;12.00;99.90
20735;DHT22;10528;52.124;5.196;2023-04-08T09:44:19;12.20;99.90
20735;DHT22;10528;52.124;5.196;2023-04-08T09:52:07;12.40;99.90
20735;DHT22;10528;52.124;5.196;2023-04-08T09:54:51;12.50;99.90
20735;DHT22;10528;52.124;5.196;2023-04-08T09:57:27;12.70;99.90
20735;DHT22;10528;52.124;5.196;2023-04-08T10:00:16;12.70;99.90
20735;DHT22;10528;52.124;5.196;2023-04-08T10:03:09;12.80;99.90
20735;DHT22;10528;52.124;5.196;2023-04-08T10:05:41;12.90;99.90
20735;DHT22;10528;52.124;5.196;2023-04-08T10:08:09;12.80;99.90
20735;DHT22;10528;52.124;5.196;2023-04-08T10:10:40;13.00;99.90
20735;DHT22;10528;52.124;5.196;2023-04-08T10:13:09;13.10;99.90
20735;DHT22;10528;52.124;5.196;2023-04-08T10:15:36;13.20;99.90
20735;DHT22;10528;52.124;5.196;2023-04-08T10:23:07;13.20;99.90
20735;DHT22;10528;52.124;5.196;2023-04-08T10:25:46;13.50;99.90
20735;DHT22;10528;52.124;5.196;2023-04-08T10:30:46;13.60;99.90
20735;DHT22;10528;52.124;5.196;2023-04-08T10:33:22;13.60;99.90
20735;DHT22;10528;52.124;5.196;2023-04-08T10:38:33;13.80;99.90
20735;DHT22;10528;52.124;5.196;2023-04-08T10:41:00;13.80;99.90
20735;DHT22;10528;52.124;5.196;2023-04-08T10:43:32;13.90;99.90
20735;DHT22;10528;52.124;5.196;2023-04-08T10:46:00;13.90;99.90
20735;DHT22;10528;52.124;5.196;2023-04-08T10:48:27;14.10;99.90
20735;DHT22;10528;52.124;5.196;2023-04-08T10:50:59;14.10;99.90
20735;DHT22;10528;52.124;5.196;2023-04-08T10:53:37;14.20;99.90
20735;DHT22;10528;52.124;5.196;2023-04-08T10:56:09;14.30;99.90
20735;DHT22;10528;52.124;5.196;2023-04-08T10:58:53;14.40;99.90
20735;DHT22;10528;52.124;5.196;2023-04-08T11:01:24;14.40;99.90
20735;DHT22;10528;52.124;5.196;2023-04-08T11:03:52;14.60;99.90
20735;DHT22;10528;52.124;5.196;2023-04-08T11:06:19;14.60;99.90
20735;DHT22;10528;52.124;5.196;2023-04-08T11:08:46;14.80;99.90
20735;DHT22;10528;52.124;5.196;2023-04-08T11:11:13;14.40;99.90
20735;DHT22;10528;52.124;5.196;2023-04-08T11:13:42;14.40;99.90
20735;DHT22;10528;52.124;5.196;2023-04-08T11:16:20;14.40;99.90
20735;DHT22;10528;52.124;5.196;2023-04-08T11:18:49;14.40;99.90
20735;DHT22;10528;52.124;5.196;2023-04-08T11:21:17;14.70;99.90
20735;DHT22;10528;52.124;5.196;2023-04-08T11:23:47;14.90;99.90
20735;DHT22;10528;52.124;5.196;2023-04-08T11:26:15;14.80;99.90
20735;DHT22;10528;52.124;5.196;2023-04-08T11:28:43;15.10;99.90
20735;DHT22;10528;52.124;5.196;2023-04-08T11:31:11;15.30;99.90
20735;DHT22;10528;52.124;5.196;2023-04-08T11:33:46;15.20;99.90
20735;DHT22;10528;52.124;5.196;2023-04-08T11:36:17;15.20;99.90
20735;DHT22;10528;52.124;5.196;2023-04-08T11:38:44;15.20;99.90
20735;DHT22;10528;52.124;5.196;2023-04-08T11:41:13;15.40;99.90
20735;DHT22;10528;52.124;5.196;2023-04-08T11:43:50;15.40;99.90
20735;DHT22;10528;52.124;5.196;2023-04-08T11:46:18;15.50;99.90
20735;DHT22;10528;52.124;5.196;2023-04-08T11:49:12;15.40;99.90
20735;DHT22;10528;52.124;5.196;2023-04-08T11:51:58;15.20;99.90
20735;DHT22;10528;52.124;5.196;2023-04-08T11:54:27;15.40;99.90
20735;DHT22;10528;52.124;5.196;2023-04-08T11:56:54;15.40;99.90
20735;DHT22;10528;52.124;5.196;2023-04-08T11:59:24;15.40;99.90
20735;DHT22;10528;52.124;5.196;2023-04-08T12:01:54;15.00;99.90
20735;DHT22;10528;52.124;5.196;2023-04-08T12:04:21;15.20;99.90
20735;DHT22;10528;52.124;5.196;2023-04-08T12:06:49;15.80;99.90
20735;DHT22;10528;52.124;5.196;2023-04-08T12:09:15;15.80;99.90
20735;DHT22;10528;52.124;5.196;2023-04-08T12:11:43;15.80;99.90
20735;DHT22;10528;52.124;5.196;2023-04-08T12:14:10;15.40;99.90
20735;DHT22;10528;52.124;5.196;2023-04-08T12:16:36;15.10;99.90
20735;DHT22;10528;52.124;5.196;2023-04-08T12:19:04;15.20;99.90
20735;DHT22;10528;52.124;5.196;2023-04-08T12:21:30;15.30;99.90
20735;DHT22;10528;52.124;5.196;2023-04-08T12:23:59;15.50;99.90
20735;DHT22;10528;52.124;5.196;2023-04-08T12:26:27;15.70;99.90
20735;DHT22;10528;52.124;5.196;2023-04-08T12:28:53;15.30;99.90
20735;DHT22;10528;52.124;5.196;2023-04-08T12:31:20;15.30;99.90
20735;DHT22;10528;52.124;5.196;2023-04-08T12:33:48;15.20;99.90
20735;DHT22;10528;52.124;5.196;2023-04-08T12:36:15;15.20;99.90
20735;DHT22;10528;52.124;5.196;2023-04-08T12:38:42;15.40;99.90
20735;DHT22;10528;52.124;5.196;2023-04-08T12:41:09;15.20;99.90
20735;DHT22;10528;52.124;5.196;2023-04-08T12:43:36;15.20;99.90
20735;DHT22;10528;52.124;5.196;2023-04-08T12:46:04;15.20;99.90
20735;DHT22;10528;52.124;5.196;2023-04-08T12:48:31;15.50;99.90
20735;DHT22;10528;52.124;5.196;2023-04-08T12:50:58;15.60;99.90
20735;DHT22;10528;52.124;5.196;2023-04-08T12:53:25;15.50;99.90
20735;DHT22;10528;52.124;5.196;2023-04-08T12:55:52;15.30;99.90
20735;DHT22;10528;52.124;5.196;2023-04-08T12:58:23;15.30;99.90
20735;DHT22;10528;52.124;5.196;2023-04-08T13:00:51;15.30;99.90
20735;DHT22;10528;52.124;5.196;2023-04-08T13:03:18;15.30;99.90
20735;DHT22;10528;52.124;5.196;2023-04-08T13:05:45;15.40;99.90
20735;DHT22;10528;52.124;5.196;2023-04-08T13:08:12;15.60;99.90
20735;DHT22;10528;52.124;5.196;2023-04-08T13:10:40;15.60;99.90
20735;DHT22;10528;52.124;5.196;2023-04-08T13:13:08;15.50;99.90
20735;DHT22;10528;52.124;5.196;2023-04-08T13:15:35;15.30;99.90
20735;DHT22;10528;52.124;5.196;2023-04-08T13:18:02;15.50;99.90
20735;DHT22;10528;52.124;5.196;2023-04-08T13:20:30;15.50;99.90
20735;DHT22;10528;52.124;5.196;2023-04-08T13:22:57;15.70;99.90
20735;DHT22;10528;52.124;5.196;2023-04-08T13:25:26;15.50;99.90
20735;DHT22;10528;52.124;5.196;2023-04-08T13:27:53;15.60;99.90
20735;DHT22;10528;52.124;5.196;2023-04-08T13:30:19;15.30;99.90
20735;DHT22;10528;52.124;5.196;2023-04-08T13:32:46;15.10;99.90
20735;DHT22;10528;52.124;5.196;2023-04-08T13:35:13;15.00;99.90
20735;DHT22;10528;52.124;5.196;2023-04-08T13:37:40;15.10;99.90
20735;DHT22;10528;52.124;5.196;2023-04-08T13:40:08;15.20;99.90
20735;DHT22;10528;52.124;5.196;2023-04-08T13:42:35;15.40;99.90
20735;DHT22;10528;52.124;5.196;2023-04-08T13:45:03;15.30;99.90
20735;DHT22;10528;52.124;5.196;2023-04-08T13:47:30;15.30;99.90
20735;DHT22;10528;52.124;5.196;2023-04-08T13:49:56;15.10;99.90
20735;DHT22;10528;52.124;5.196;2023-04-08T13:52:23;14.70;99.90
20735;DHT22;10528;52.124;5.196;2023-04-08T13:54:50;14.90;99.90
20735;DHT22;10528;52.124;5.196;2023-04-08T13:57:17;14.90;99.90
20735;DHT22;10528;52.124;5.196;2023-04-08T13:59:44;14.90;99.90
20735;DHT22;10528;52.124;5.196;2023-04-08T14:02:11;14.90;99.90
20735;DHT22;10528;52.124;5.196;2023-04-08T14:04:38;14.60;99.90
20735;DHT22;10528;52.124;5.196;2023-04-08T14:07:06;14.80;99.90
20735;DHT22;10528;52.124;5.196;2023-04-08T14:09:32;14.80;99.90
20735;DHT22;10528;52.124;5.196;2023-04-08T14:11:59;14.90;99.90
20735;DHT22;10528;52.124;5.196;2023-04-08T14:14:26;15.00;99.90
20735;DHT22;10528;52.124;5.196;2023-04-08T14:16:53;15.20;99.90
20735;DHT22;10528;52.124;5.196;2023-04-08T14:19:20;15.00;99.90
20735;DHT22;10528;52.124;5.196;2023-04-08T14:21:47;15.00;99.90
20735;DHT22;10528;52.124;5.196;2023-04-08T14:24:14;14.80;99.90
20735;DHT22;10528;52.124;5.196;2023-04-08T14:26:41;15.00;99.90
20735;DHT22;10528;52.124;5.196;2023-04-08T14:29:08;14.80;99.90
20735;DHT22;10528;52.124;5.196;2023-04-08T14:31:35;14.60;99.90
20735;DHT22;10528;52.124;5.196;2023-04-08T14:34:03;14.60;99.90
20735;DHT22;10528;52.124;5.196;2023-04-08T14:36:30;14.60;99.90
20735;DHT22;10528;52.124;5.196;2023-04-08T14:38:58;14.40;99.90
20735;DHT22;10528;52.124;5.196;2023-04-08T14:41:25;14.30;99.90
20735;DHT22;10528;52.124;5.196;2023-04-08T14:43:52;14.20;99.90
20735;DHT22;10528;52.124;5.196;2023-04-08T14:46:20;14.20;99.90
20735;DHT22;10528;52.124;5.196;2023-04-08T14:48:47;14.10;99.90
20735;DHT22;10528;52.124;5.196;2023-04-08T14:51:14;14.10;99.90
20735;DHT22;10528;52.124;5.196;2023-04-08T14:53:41;14.30;99.90
20735;DHT22;10528;52.124;5.196;2023-04-08T14:56:08;14.30;99.90
20735;DHT22;10528;52.124;5.196;2023-04-08T14:58:35;14.40;99.90
20735;DHT22;10528;52.124;5.196;2023-04-08T15:01:03;14.30;99.90
20735;DHT22;10528;52.124;5.196;2023-04-08T15:03:30;14.30;99.90
20735;DHT22;10528;52.124;5.196;2023-04-08T15:05:57;14.30;99.90
20735;DHT22;10528;52.124;5.196;2023-04-08T15:08:25;14.60;99.90
20735;DHT22;10528;52.124;5.196;2023-04-08T15:10:52;14.60;99.90
20735;DHT22;10528;52.124;5.196;2023-04-08T15:13:19;14.60;99.90
20735;DHT22;10528;52.124;5.196;2023-04-08T15:15:45;14.40;99.90
20735;DHT22;10528;52.124;5.196;2023-04-08T15:18:12;14.40;99.90
20735;DHT22;10528;52.124;5.196;2023-04-08T15:20:39;14.40;99.90
20735;DHT22;10528;52.124;5.196;2023-04-08T15:23:07;14.00;99.90
20735;DHT22;10528;52.124;5.196;2023-04-08T15:25:33;14.10;99.90
20735;DHT22;10528;52.124;5.196;2023-04-08T15:28:00;14.00;99.90
20735;DHT22;10528;52.124;5.196;2023-04-08T15:30:28;14.00;99.90
20735;DHT22;10528;52.124;5.196;2023-04-08T15:33:03;13.70;99.90
20735;DHT22;10528;52.124;5.196;2023-04-08T15:35:30;13.80;99.90
20735;DHT22;10528;52.124;5.196;2023-04-08T15:37:58;13.80;99.90
20735;DHT22;10528;52.124;5.196;2023-04-08T15:40:26;13.80;99.90
20735;DHT22;10528;52.124;5.196;2023-04-08T15:42:53;13.80;99.90
20735;DHT22;10528;52.124;5.196;2023-04-08T15:45:20;13.80;99.90
20735;DHT22;10528;52.124;5.196;2023-04-08T15:47:47;14.00;99.90
20735;DHT22;10528;52.124;5.196;2023-04-08T15:50:14;14.00;99.90
20735;DHT22;10528;52.124;5.196;2023-04-08T15:52:43;13.90;99.90
20735;DHT22;10528;52.124;5.196;2023-04-08T15:55:10;13.90;99.90
20735;DHT22;10528;52.124;5.196;2023-04-08T15:57:37;14.00;99.90
20735;DHT22;10528;52.124;5.196;2023-04-08T16:00:10;14.00;99.90
20735;DHT22;10528;52.124;5.196;2023-04-08T16:02:40;14.00;99.90
20735;DHT22;10528;52.124;5.196;2023-04-08T16:05:08;14.00;99.90
20735;DHT22;10528;52.124;5.196;2023-04-08T16:07:35;14.10;99.90